sensor_id;sensor_type;location;lat;lon;timestamp;P1;durP1;ratioP1;P2;durP2;ratioP2
7607;SDS011;3845;48.120;11.534;2022-08-19T00:00:26;3.20;;;2.43;;
7607;SDS011;3845;48.120;11.534;2022-08-19T00:02:52;2.57;;;2.37;;
7607;SDS011;3845;48.120;11.534;2022-08-19T00:05:18;2.67;;;2.40;;
7607;SDS011;3845;48.120;11.534;2022-08-19T00:07:45;3.17;;;2.87;;
7607;SDS011;3845;48.120;11.534;2022-08-19T00:10:11;3.20;;;2.90;;
7607;SDS011;3845;48.120;11.534;2022-08-19T00:12:37;4.03;;;2.57;;
7607;SDS011;3845;48.120;11.534;2022-08-19T00:15:08;2.70;;;2.50;;
7607;SDS011;3845;48.120;11.534;2022-08-19T00:17:39;2.67;;;2.47;;
7607;SDS011;3845;48.120;11.534;2022-08-19T00:20:05;3.23;;;2.93;;
7607;SDS011;3845;48.120;11.534;2022-08-19T00:22:31;3.20;;;2.90;;
7607;SDS011;3845;48.120;11.534;2022-08-19T00:24:57;4.03;;;3.63;;
7607;SDS011;3845;48.120;11.534;2022-08-19T00:27:22;3.40;;;3.10;;
7607;SDS011;3845;48.120;11.534;2022-08-19T00:29:48;3.20;;;2.90;;
7607;SDS011;3845;48.120;11.534;2022-08-19T00:32:13;3.00;;;2.70;;
7607;SDS011;3845;48.120;11.534;2022-08-19T00:34:39;3.73;;;3.43;;
7607;SDS011;3845;48.120;11.534;2022-08-19T00:37:04;3.77;;;3.47;;
7607;SDS011;3845;48.120;11.534;2022-08-19T00:39:30;4.50;;;4.10;;
7607;SDS011;3845;48.120;11.534;2022-08-19T00:41:55;3.93;;;3.53;;
7607;SDS011;3845;48.120;11.534;2022-08-19T00:44:24;3.10;;;2.80;;
7607;SDS011;3845;48.120;11.534;2022-08-19T00:46:52;3.03;;;2.80;;
7607;SDS011;3845;48.120;11.534;2022-08-19T00:49:20;3.00;;;2.80;;
7607;SDS011;3845;48.120;11.534;2022-08-19T00:51:50;3.60;;;3.20;;
7607;SDS011;3845;48.120;11.534;2022-08-19T00:54:19;3.00;;;2.70;;
7607;SDS011;3845;48.120;11.534;2022-08-19T00:56:45;3.60;;;3.30;;
7607;SDS011;3845;48.120;11.534;2022-08-19T00:59:11;3.50;;;3.20;;
7607;SDS011;3845;48.120;11.534;2022-08-19T01:01:37;3.77;;;3.47;;
7607;SDS011;3845;48.120;11.534;2022-08-19T01:04:03;4.67;;;4.27;;
7607;SDS011;3845;48.120;11.534;2022-08-19T01:06:28;4.60;;;4.20;;
7607;SDS011;3845;48.120;11.534;2022-08-19T01:08:57;6.17;;;5.57;;
7607;SDS011;3845;48.120;11.534;2022-08-19T01:11:23;5.60;;;5.10;;
7607;SDS011;3845;48.120;11.534;2022-08-19T01:13:49;6.23;;;5.73;;
7607;SDS011;3845;48.120;11.534;2022-08-19T01:16:16;5.83;;;5.33;;
7607;SDS011;3845;48.120;11.534;2022-08-19T01:18:42;6.40;;;5.80;;
7607;SDS011;3845;48.120;11.534;2022-08-19T01:21:13;6.90;;;6.30;;
7607;SDS011;3845;48.120;11.534;2022-08-19T01:24:01;6.20;;;5.60;;
7607;SDS011;3845;48.120;11.534;2022-08-19T01:26:27;6.30;;;5.70;;
7607;SDS011;3845;48.120;11.534;2022-08-19T01:28:54;7.20;;;6.50;;
7607;SDS011;3845;48.120;11.534;2022-08-19T01:31:23;5.47;;;4.80;;
7607;SDS011;3845;48.120;11.534;2022-08-19T01:33:51;5.50;;;5.00;;
7607;SDS011;3845;48.120;11.534;2022-08-19T01:36:31;6.40;;;5.90;;
7607;SDS011;3845;48.120;11.534;2022-08-19T01:38:57;5.13;;;4.67;;
7607;SDS011;3845;48.120;11.534;2022-08-19T01:41:23;5.10;;;4.70;;
7607;SDS011;3845;48.120;11.534;2022-08-19T01:43:49;5.30;;;4.80;;
7607;SDS011;3845;48.120;11.534;2022-08-19T01:46:15;4.10;;;3.80;;
7607;SDS011;3845;48.120;11.534;2022-08-19T01:48:42;4.60;;;4.13;;
7607;SDS011;3845;48.120;11.534;2022-08-19T01:51:08;5.00;;;4.57;;
7607;SDS011;3845;48.120;11.534;2022-08-19T01:53:34;5.87;;;5.37;;
7607;SDS011;3845;48.120;11.534;2022-08-19T01:55:59;5.50;;;5.00;;
7607;SDS011;3845;48.120;11.534;2022-08-19T01:58:27;6.10;;;5.50;;
7607;SDS011;3845;48.120;11.534;2022-08-19T02:00:56;5.50;;;5.10;;
7607;SDS011;3845;48.120;11.534;2022-08-19T02:03:22;5.40;;;4.90;;
7607;SDS011;3845;48.120;11.534;2022-08-19T02:05:47;4.50;;;4.10;;
7607;SDS011;3845;48.120;11.534;2022-08-19T02:08:15;4.70;;;4.30;;
7607;SDS011;3845;48.120;11.534;2022-08-19T02:10:41;4.67;;;4.27;;
7607;SDS011;3845;48.120;11.534;2022-08-19T02:13:08;7.10;;;6.40;;
7607;SDS011;3845;48.120;11.534;2022-08-19T02:15:34;6.27;;;5.67;;
7607;SDS011;3845;48.120;11.534;2022-08-19T02:17:59;5.90;;;5.40;;
7607;SDS011;3845;48.120;11.534;2022-08-19T02:20:24;6.13;;;5.53;;
7607;SDS011;3845;48.120;11.534;2022-08-19T02:22:50;7.40;;;6.70;;
7607;SDS011;3845;48.120;11.534;2022-08-19T02:25:15;6.87;;;6.27;;
7607;SDS011;3845;48.120;11.534;2022-08-19T02:27:41;6.17;;;5.57;;
7607;SDS011;3845;48.120;11.534;2022-08-19T02:30:07;5.50;;;5.00;;
7607;SDS011;3845;48.120;11.534;2022-08-19T02:32:36;4.80;;;4.40;;
7607;SDS011;3845;48.120;11.534;2022-08-19T02:35:01;4.50;;;4.10;;
7607;SDS011;3845;48.120;11.534;2022-08-19T02:37:27;3.63;;;3.33;;
7607;SDS011;3845;48.120;11.534;2022-08-19T02:40:11;4.87;;;4.47;;
7607;SDS011;3845;48.120;11.534;2022-08-19T02:42:37;4.13;;;3.83;;
7607;SDS011;3845;48.120;11.534;2022-08-19T02:45:02;3.87;;;3.57;;
7607;SDS011;3845;48.120;11.534;2022-08-19T02:47:30;4.37;;;4.00;;
7607;SDS011;3845;48.120;11.534;2022-08-19T02:49:55;5.13;;;4.73;;
7607;SDS011;3845;48.120;11.534;2022-08-19T02:52:21;4.50;;;4.10;;
7607;SDS011;3845;48.120;11.534;2022-08-19T02:54:48;5.00;;;4.60;;
7607;SDS011;3845;48.120;11.534;2022-08-19T02:57:14;5.03;;;4.60;;
7607;SDS011;3845;48.120;11.534;2022-08-19T02:59:39;4.03;;;3.67;;
7607;SDS011;3845;48.120;11.534;2022-08-19T03:02:05;4.27;;;3.87;;
7607;SDS011;3845;48.120;11.534;2022-08-19T03:04:30;5.40;;;4.90;;
7607;SDS011;3845;48.120;11.534;2022-08-19T03:06:55;4.63;;;3.70;;
7607;SDS011;3845;48.120;11.534;2022-08-19T03:09:21;3.77;;;3.47;;
7607;SDS011;3845;48.120;11.534;2022-08-19T03:11:46;3.50;;;3.20;;
7607;SDS011;3845;48.120;11.534;2022-08-19T03:14:12;3.77;;;3.47;;
7607;SDS011;3845;48.120;11.534;2022-08-19T03:16:47;3.97;;;3.27;;
7607;SDS011;3845;48.120;11.534;2022-08-19T03:19:15;3.50;;;2.83;;
7607;SDS011;3845;48.120;11.534;2022-08-19T03:21:41;3.37;;;3.07;;
7607;SDS011;3845;48.120;11.534;2022-08-19T03:24:09;3.70;;;3.40;;
7607;SDS011;3845;48.120;11.534;2022-08-19T03:26:40;3.10;;;2.90;;
7607;SDS011;3845;48.120;11.534;2022-08-19T03:29:07;4.13;;;3.30;;
7607;SDS011;3845;48.120;11.534;2022-08-19T03:31:35;4.30;;;3.90;;
7607;SDS011;3845;48.120;11.534;2022-08-19T03:34:00;3.83;;;3.53;;
7607;SDS011;3845;48.120;11.534;2022-08-19T03:36:26;4.90;;;4.50;;
7607;SDS011;3845;48.120;11.534;2022-08-19T03:38:55;4.40;;;4.00;;
7607;SDS011;3845;48.120;11.534;2022-08-19T03:41:23;5.30;;;4.80;;
7607;SDS011;3845;48.120;11.534;2022-08-19T03:43:51;5.00;;;4.30;;
7607;SDS011;3845;48.120;11.534;2022-08-19T03:46:19;7.10;;;6.40;;
7607;SDS011;3845;48.120;11.534;2022-08-19T03:48:55;6.20;;;5.60;;
7607;SDS011;3845;48.120;11.534;2022-08-19T03:51:23;5.60;;;5.10;;
7607;SDS011;3845;48.120;11.534;2022-08-19T03:53:51;4.27;;;3.90;;
7607;SDS011;3845;48.120;11.534;2022-08-19T03:56:18;4.30;;;4.00;;
7607;SDS011;3845;48.120;11.534;2022-08-19T03:58:44;4.23;;;3.83;;
7607;SDS011;3845;48.120;11.534;2022-08-19T04:01:14;4.80;;;4.30;;
7607;SDS011;3845;48.120;11.534;2022-08-19T04:03:40;4.47;;;3.70;;
7607;SDS011;3845;48.120;11.534;2022-08-19T04:06:12;4.30;;;3.90;;
7607;SDS011;3845;48.120;11.534;2022-08-19T04:08:42;5.30;;;4.87;;
7607;SDS011;3845;48.120;11.534;2022-08-19T04:11:09;4.80;;;4.40;;
7607;SDS011;3845;48.120;11.534;2022-08-19T04:13:36;6.33;;;5.27;;
7607;SDS011;3845;48.120;11.534;2022-08-19T04:16:01;5.67;;;5.17;;
7607;SDS011;3845;48.120;11.534;2022-08-19T04:18:28;6.13;;;5.07;;
7607;SDS011;3845;48.120;11.534;2022-08-19T04:20:54;4.50;;;4.10;;
7607;SDS011;3845;48.120;11.534;2022-08-19T04:23:20;6.30;;;5.80;;
7607;SDS011;3845;48.120;11.534;2022-08-19T04:25:45;5.87;;;5.33;;
7607;SDS011;3845;48.120;11.534;2022-08-19T04:28:11;5.17;;;4.67;;
7607;SDS011;3845;48.120;11.534;2022-08-19T04:30:44;6.30;;;5.70;;
7607;SDS011;3845;48.120;11.534;2022-08-19T04:33:13;5.83;;;5.33;;
7607;SDS011;3845;48.120;11.534;2022-08-19T04:35:41;5.13;;;4.63;;
7607;SDS011;3845;48.120;11.534;2022-08-19T04:38:08;4.47;;;4.07;;
7607;SDS011;3845;48.120;11.534;2022-08-19T04:40:34;5.20;;;4.70;;
7607;SDS011;3845;48.120;11.534;2022-08-19T04:43:24;4.97;;;4.47;;
7607;SDS011;3845;48.120;11.534;2022-08-19T04:45:49;4.63;;;4.23;;
7607;SDS011;3845;48.120;11.534;2022-08-19T04:48:16;5.30;;;4.80;;
7607;SDS011;3845;48.120;11.534;2022-08-19T04:50:42;5.53;;;5.03;;
7607;SDS011;3845;48.120;11.534;2022-08-19T04:53:08;4.43;;;4.03;;
7607;SDS011;3845;48.120;11.534;2022-08-19T04:55:34;3.80;;;3.50;;
7607;SDS011;3845;48.120;11.534;2022-08-19T04:58:00;6.53;;;4.37;;
7607;SDS011;3845;48.120;11.534;2022-08-19T05:00:27;7.27;;;5.60;;
7607;SDS011;3845;48.120;11.534;2022-08-19T05:02:52;4.80;;;4.40;;
7607;SDS011;3845;48.120;11.534;2022-08-19T05:05:17;5.40;;;4.90;;
7607;SDS011;3845;48.120;11.534;2022-08-19T05:07:43;5.87;;;5.27;;
7607;SDS011;3845;48.120;11.534;2022-08-19T05:10:08;6.40;;;4.70;;
7607;SDS011;3845;48.120;11.534;2022-08-19T05:12:34;5.27;;;4.77;;
7607;SDS011;3845;48.120;11.534;2022-08-19T05:14:59;5.90;;;5.37;;
7607;SDS011;3845;48.120;11.534;2022-08-19T05:17:26;5.07;;;4.57;;
7607;SDS011;3845;48.120;11.534;2022-08-19T05:19:51;5.00;;;4.60;;
7607;SDS011;3845;48.120;11.534;2022-08-19T05:22:35;4.40;;;4.00;;
7607;SDS011;3845;48.120;11.534;2022-08-19T05:25:03;5.77;;;5.13;;
7607;SDS011;3845;48.120;11.534;2022-08-19T05:27:32;4.80;;;4.40;;
7607;SDS011;3845;48.120;11.534;2022-08-19T05:29:58;6.53;;;5.63;;
7607;SDS011;3845;48.120;11.534;2022-08-19T05:32:24;9.93;;;8.90;;
7607;SDS011;3845;48.120;11.534;2022-08-19T05:34:49;7.43;;;6.73;;
7607;SDS011;3845;48.120;11.534;2022-08-19T05:37:15;6.40;;;5.80;;
7607;SDS011;3845;48.120;11.534;2022-08-19T05:39:40;5.63;;;5.13;;
7607;SDS011;3845;48.120;11.534;2022-08-19T05:42:06;5.17;;;4.77;;
7607;SDS011;3845;48.120;11.534;2022-08-19T05:44:34;5.63;;;5.13;;
7607;SDS011;3845;48.120;11.534;2022-08-19T05:47:02;4.83;;;4.43;;
7607;SDS011;3845;48.120;11.534;2022-08-19T05:49:29;4.83;;;4.40;;
7607;SDS011;3845;48.120;11.534;2022-08-19T05:51:56;4.93;;;4.53;;
7607;SDS011;3845;48.120;11.534;2022-08-19T05:54:22;5.50;;;5.00;;
7607;SDS011;3845;48.120;11.534;2022-08-19T05:56:49;5.70;;;5.00;;
7607;SDS011;3845;48.120;11.534;2022-08-19T05:59:15;5.37;;;4.97;;
7607;SDS011;3845;48.120;11.534;2022-08-19T06:01:42;5.50;;;5.00;;
7607;SDS011;3845;48.120;11.534;2022-08-19T06:04:09;4.60;;;4.20;;
7607;SDS011;3845;48.120;11.534;2022-08-19T06:06:35;4.50;;;4.10;;
7607;SDS011;3845;48.120;11.534;2022-08-19T06:09:04;5.90;;;5.30;;
7607;SDS011;3845;48.120;11.534;2022-08-19T06:13:59;6.50;;;5.90;;
7607;SDS011;3845;48.120;11.534;2022-08-19T06:16:26;6.00;;;5.40;;
7607;SDS011;3845;48.120;11.534;2022-08-19T06:18:52;5.90;;;5.40;;
7607;SDS011;3845;48.120;11.534;2022-08-19T06:21:20;6.33;;;5.80;;
7607;SDS011;3845;48.120;11.534;2022-08-19T06:23:46;6.03;;;5.43;;
7607;SDS011;3845;48.120;11.534;2022-08-19T06:26:12;5.33;;;4.83;;
7607;SDS011;3845;48.120;11.534;2022-08-19T06:28:38;5.60;;;5.10;;
7607;SDS011;3845;48.120;11.534;2022-08-19T06:31:08;5.53;;;5.03;;
7607;SDS011;3845;48.120;11.534;2022-08-19T06:33:34;6.23;;;5.63;;
7607;SDS011;3845;48.120;11.534;2022-08-19T06:36:00;6.10;;;5.50;;
7607;SDS011;3845;48.120;11.534;2022-08-19T06:38:25;6.10;;;5.60;;
7607;SDS011;3845;48.120;11.534;2022-08-19T06:40:50;6.50;;;5.90;;
7607;SDS011;3845;48.120;11.534;2022-08-19T06:43:15;6.80;;;5.43;;
7607;SDS011;3845;48.120;11.534;2022-08-19T06:45:41;6.83;;;6.20;;
7607;SDS011;3845;48.120;11.534;2022-08-19T06:48:07;5.83;;;5.33;;
7607;SDS011;3845;48.120;11.534;2022-08-19T06:50:32;7.33;;;6.73;;
7607;SDS011;3845;48.120;11.534;2022-08-19T06:52:57;6.70;;;6.10;;
7607;SDS011;3845;48.120;11.534;2022-08-19T06:55:23;6.83;;;6.13;;
7607;SDS011;3845;48.120;11.534;2022-08-19T06:57:48;6.27;;;5.60;;
7607;SDS011;3845;48.120;11.534;2022-08-19T07:00:17;5.43;;;4.93;;
7607;SDS011;3845;48.120;11.534;2022-08-19T07:02:43;8.03;;;7.23;;
7607;SDS011;3845;48.120;11.534;2022-08-19T07:05:09;8.60;;;7.80;;
7607;SDS011;3845;48.120;11.534;2022-08-19T07:07:35;6.53;;;5.93;;
7607;SDS011;3845;48.120;11.534;2022-08-19T07:10:00;6.90;;;6.13;;
7607;SDS011;3845;48.120;11.534;2022-08-19T07:12:27;8.57;;;7.67;;
7607;SDS011;3845;48.120;11.534;2022-08-19T07:14:54;11.87;;;10.70;;
7607;SDS011;3845;48.120;11.534;2022-08-19T07:17:19;10.07;;;9.13;;
7607;SDS011;3845;48.120;11.534;2022-08-19T07:19:45;8.60;;;7.80;;
7607;SDS011;3845;48.120;11.534;2022-08-19T07:22:10;8.03;;;7.30;;
7607;SDS011;3845;48.120;11.534;2022-08-19T07:24:36;9.53;;;7.57;;
7607;SDS011;3845;48.120;11.534;2022-08-19T07:27:03;11.47;;;10.27;;
7607;SDS011;3845;48.120;11.534;2022-08-19T07:29:30;10.80;;;9.80;;
7607;SDS011;3845;48.120;11.534;2022-08-19T07:31:58;11.70;;;10.53;;
7607;SDS011;3845;48.120;11.534;2022-08-19T07:34:24;10.83;;;9.83;;
7607;SDS011;3845;48.120;11.534;2022-08-19T07:36:50;11.93;;;10.83;;
7607;SDS011;3845;48.120;11.534;2022-08-19T07:39:18;10.00;;;9.03;;
7607;SDS011;3845;48.120;11.534;2022-08-19T07:41:46;11.60;;;10.13;;
7607;SDS011;3845;48.120;11.534;2022-08-19T07:44:12;9.87;;;8.83;;
7607;SDS011;3845;48.120;11.534;2022-08-19T07:46:38;11.30;;;10.20;;
7607;SDS011;3845;48.120;11.534;2022-08-19T07:49:05;11.43;;;10.33;;
7607;SDS011;3845;48.120;11.534;2022-08-19T07:51:31;13.83;;;12.43;;
7607;SDS011;3845;48.120;11.534;2022-08-19T07:53:56;15.53;;;13.93;;
7607;SDS011;3845;48.120;11.534;2022-08-19T07:56:22;13.67;;;12.37;;
7607;SDS011;3845;48.120;11.534;2022-08-19T07:58:48;11.43;;;10.33;;
7607;SDS011;3845;48.120;11.534;2022-08-19T08:01:16;12.57;;;11.37;;
7607;SDS011;3845;48.120;11.534;2022-08-19T08:03:43;10.70;;;9.60;;
7607;SDS011;3845;48.120;11.534;2022-08-19T08:06:27;14.00;;;12.67;;
7607;SDS011;3845;48.120;11.534;2022-08-19T08:09:11;16.67;;;14.97;;
7607;SDS011;3845;48.120;11.534;2022-08-19T08:11:47;12.70;;;11.50;;
7607;SDS011;3845;48.120;11.534;2022-08-19T08:14:16;14.70;;;13.30;;
7607;SDS011;3845;48.120;11.534;2022-08-19T08:16:43;12.83;;;11.63;;
7607;SDS011;3845;48.120;11.534;2022-08-19T08:19:10;12.93;;;11.63;;
7607;SDS011;3845;48.120;11.534;2022-08-19T08:21:35;13.97;;;12.67;;
7607;SDS011;3845;48.120;11.534;2022-08-19T08:24:01;17.27;;;15.67;;
7607;SDS011;3845;48.120;11.534;2022-08-19T08:26:26;14.43;;;13.03;;
7607;SDS011;3845;48.120;11.534;2022-08-19T08:28:52;15.00;;;13.43;;
7607;SDS011;3845;48.120;11.534;2022-08-19T08:31:18;15.20;;;13.70;;
7607;SDS011;3845;48.120;11.534;2022-08-19T08:33:47;14.23;;;12.83;;
7607;SDS011;3845;48.120;11.534;2022-08-19T08:36:13;14.70;;;13.30;;
7607;SDS011;3845;48.120;11.534;2022-08-19T08:38:40;16.30;;;14.63;;
7607;SDS011;3845;48.120;11.534;2022-08-19T08:44:00;17.47;;;15.70;;
7607;SDS011;3845;48.120;11.534;2022-08-19T08:48:58;15.23;;;13.83;;
7607;SDS011;3845;48.120;11.534;2022-08-19T08:51:32;15.30;;;13.80;;
7607;SDS011;3845;48.120;11.534;2022-08-19T08:54:04;26.33;;;23.70;;
7607;SDS011;3845;48.120;11.534;2022-08-19T08:56:31;21.37;;;19.27;;
7607;SDS011;3845;48.120;11.534;2022-08-19T08:59:12;20.47;;;18.43;;
7607;SDS011;3845;48.120;11.534;2022-08-19T09:01:44;17.20;;;15.50;;
7607;SDS011;3845;48.120;11.534;2022-08-19T09:04:09;16.40;;;14.80;;
7607;SDS011;3845;48.120;11.534;2022-08-19T09:07:14;15.60;;;14.10;;
7607;SDS011;3845;48.120;11.534;2022-08-19T09:09:46;16.67;;;15.07;;
7607;SDS011;3845;48.120;11.534;2022-08-19T09:14:48;15.33;;;13.80;;
7607;SDS011;3845;48.120;11.534;2022-08-19T09:17:23;14.73;;;13.23;;
7607;SDS011;3845;48.120;11.534;2022-08-19T09:22:32;13.63;;;12.23;;
7607;SDS011;3845;48.120;11.534;2022-08-19T09:24:58;13.63;;;12.33;;
7607;SDS011;3845;48.120;11.534;2022-08-19T09:27:24;14.40;;;13.00;;
7607;SDS011;3845;48.120;11.534;2022-08-19T09:29:50;10.90;;;9.80;;
7607;SDS011;3845;48.120;11.534;2022-08-19T09:32:16;11.40;;;10.30;;
7607;SDS011;3845;48.120;11.534;2022-08-19T09:34:43;14.53;;;13.13;;
7607;SDS011;3845;48.120;11.534;2022-08-19T09:37:09;13.30;;;12.00;;
7607;SDS011;3845;48.120;11.534;2022-08-19T09:39:34;13.43;;;12.03;;
7607;SDS011;3845;48.120;11.534;2022-08-19T09:42:00;14.50;;;13.10;;
7607;SDS011;3845;48.120;11.534;2022-08-19T09:44:25;12.27;;;11.07;;
7607;SDS011;3845;48.120;11.534;2022-08-19T09:46:50;12.17;;;11.07;;
7607;SDS011;3845;48.120;11.534;2022-08-19T09:49:16;11.80;;;10.60;;
7607;SDS011;3845;48.120;11.534;2022-08-19T09:51:43;10.53;;;9.47;;
7607;SDS011;3845;48.120;11.534;2022-08-19T09:54:08;12.33;;;11.13;;
7607;SDS011;3845;48.120;11.534;2022-08-19T09:56:33;11.77;;;10.67;;
7607;SDS011;3845;48.120;11.534;2022-08-19T09:58:59;12.50;;;11.27;;
7607;SDS011;3845;48.120;11.534;2022-08-19T10:01:28;12.13;;;10.93;;
7607;SDS011;3845;48.120;11.534;2022-08-19T10:03:55;12.87;;;11.57;;
7607;SDS011;3845;48.120;11.534;2022-08-19T10:06:22;12.40;;;11.10;;
7607;SDS011;3845;48.120;11.534;2022-08-19T10:08:48;18.30;;;16.47;;
7607;SDS011;3845;48.120;11.534;2022-08-19T10:11:14;16.27;;;14.70;;
7607;SDS011;3845;48.120;11.534;2022-08-19T10:13:42;18.27;;;16.47;;
7607;SDS011;3845;48.120;11.534;2022-08-19T10:16:09;16.57;;;15.00;;
7607;SDS011;3845;48.120;11.534;2022-08-19T10:18:37;13.40;;;12.10;;
7607;SDS011;3845;48.120;11.534;2022-08-19T10:21:04;14.63;;;13.13;;
7607;SDS011;3845;48.120;11.534;2022-08-19T10:23:34;12.33;;;11.13;;
7607;SDS011;3845;48.120;11.534;2022-08-19T10:26:04;12.03;;;10.83;;
7607;SDS011;3845;48.120;11.534;2022-08-19T10:28:31;12.07;;;10.87;;
7607;SDS011;3845;48.120;11.534;2022-08-19T10:31:04;15.37;;;13.77;;
7607;SDS011;3845;48.120;11.534;2022-08-19T10:33:35;14.13;;;12.73;;
7607;SDS011;3845;48.120;11.534;2022-08-19T10:36:02;17.00;;;15.30;;
7607;SDS011;3845;48.120;11.534;2022-08-19T10:38:29;14.57;;;13.17;;
7607;SDS011;3845;48.120;11.534;2022-08-19T10:40:54;14.77;;;13.37;;
7607;SDS011;3845;48.120;11.534;2022-08-19T10:43:20;14.67;;;13.20;;
7607;SDS011;3845;48.120;11.534;2022-08-19T10:45:51;12.17;;;10.97;;
7607;SDS011;3845;48.120;11.534;2022-08-19T10:48:18;12.57;;;11.27;;
7607;SDS011;3845;48.120;11.534;2022-08-19T10:50:44;12.63;;;11.33;;
7607;SDS011;3845;48.120;11.534;2022-08-19T10:53:28;10.90;;;9.90;;
7607;SDS011;3845;48.120;11.534;2022-08-19T10:55:53;16.10;;;14.40;;
7607;SDS011;3845;48.120;11.534;2022-08-19T10:58:37;12.07;;;10.97;;
7607;SDS011;3845;48.120;11.534;2022-08-19T11:01:02;10.63;;;9.63;;
7607;SDS011;3845;48.120;11.534;2022-08-19T11:03:27;11.60;;;10.50;;
7607;SDS011;3845;48.120;11.534;2022-08-19T11:05:58;8.93;;;8.13;;
7607;SDS011;3845;48.120;11.534;2022-08-19T11:08:33;12.10;;;10.80;;
7607;SDS011;3845;48.120;11.534;2022-08-19T11:11:02;8.80;;;8.00;;
7607;SDS011;3845;48.120;11.534;2022-08-19T11:13:32;9.87;;;8.87;;
7607;SDS011;3845;48.120;11.534;2022-08-19T11:16:02;8.83;;;7.90;;
7607;SDS011;3845;48.120;11.534;2022-08-19T11:18:33;8.90;;;8.10;;
7607;SDS011;3845;48.120;11.534;2022-08-19T11:21:09;7.90;;;7.20;;
7607;SDS011;3845;48.120;11.534;2022-08-19T11:23:43;9.73;;;8.83;;
7607;SDS011;3845;48.120;11.534;2022-08-19T11:26:10;11.73;;;10.53;;
7607;SDS011;3845;48.120;11.534;2022-08-19T11:28:36;11.67;;;10.53;;
7607;SDS011;3845;48.120;11.534;2022-08-19T11:31:01;12.40;;;10.97;;
7607;SDS011;3845;48.120;11.534;2022-08-19T11:33:28;9.17;;;8.30;;
7607;SDS011;3845;48.120;11.534;2022-08-19T11:35:57;10.93;;;9.93;;
7607;SDS011;3845;48.120;11.534;2022-08-19T11:38:24;8.80;;;8.00;;
7607;SDS011;3845;48.120;11.534;2022-08-19T11:40:54;7.90;;;7.20;;
7607;SDS011;3845;48.120;11.534;2022-08-19T11:43:23;8.90;;;8.10;;
7607;SDS011;3845;48.120;11.534;2022-08-19T11:45:51;14.43;;;12.93;;
7607;SDS011;3845;48.120;11.534;2022-08-19T11:48:16;8.33;;;7.60;;
7607;SDS011;3845;48.120;11.534;2022-08-19T11:50:42;6.40;;;5.80;;
7607;SDS011;3845;48.120;11.534;2022-08-19T11:53:08;5.40;;;4.90;;
7607;SDS011;3845;48.120;11.534;2022-08-19T11:55:36;5.57;;;5.07;;
7607;SDS011;3845;48.120;11.534;2022-08-19T11:58:04;4.87;;;4.47;;
7607;SDS011;3845;48.120;11.534;2022-08-19T12:00:31;4.13;;;3.73;;
7607;SDS011;3845;48.120;11.534;2022-08-19T12:02:57;5.57;;;5.07;;
7607;SDS011;3845;48.120;11.534;2022-08-19T12:05:22;5.40;;;4.93;;
7607;SDS011;3845;48.120;11.534;2022-08-19T12:07:48;3.53;;;3.23;;
7607;SDS011;3845;48.120;11.534;2022-08-19T12:10:13;4.20;;;2.80;;
7607;SDS011;3845;48.120;11.534;2022-08-19T12:12:39;2.40;;;2.20;;
7607;SDS011;3845;48.120;11.534;2022-08-19T12:15:08;2.10;;;1.90;;
7607;SDS011;3845;48.120;11.534;2022-08-19T12:17:35;2.20;;;1.90;;
7607;SDS011;3845;48.120;11.534;2022-08-19T12:20:01;2.63;;;2.43;;
7607;SDS011;3845;48.120;11.534;2022-08-19T12:22:26;2.93;;;2.60;;
7607;SDS011;3845;48.120;11.534;2022-08-19T12:24:53;3.40;;;3.10;;
7607;SDS011;3845;48.120;11.534;2022-08-19T12:27:19;3.43;;;2.67;;
7607;SDS011;3845;48.120;11.534;2022-08-19T12:29:45;3.57;;;3.27;;
7607;SDS011;3845;48.120;11.534;2022-08-19T12:32:10;3.00;;;2.73;;
7607;SDS011;3845;48.120;11.534;2022-08-19T12:34:36;3.07;;;2.30;;
7607;SDS011;3845;48.120;11.534;2022-08-19T12:37:02;2.70;;;2.50;;
7607;SDS011;3845;48.120;11.534;2022-08-19T12:39:29;5.57;;;4.60;;
7607;SDS011;3845;48.120;11.534;2022-08-19T12:41:56;2.90;;;2.30;;
7607;SDS011;3845;48.120;11.534;2022-08-19T12:44:21;2.30;;;1.80;;
7607;SDS011;3845;48.120;11.534;2022-08-19T12:46:48;3.33;;;2.43;;
7607;SDS011;3845;48.120;11.534;2022-08-19T12:49:14;3.80;;;2.37;;
7607;SDS011;3845;48.120;11.534;2022-08-19T12:51:40;4.73;;;4.23;;
7607;SDS011;3845;48.120;11.534;2022-08-19T12:54:06;12.53;;;11.33;;
7607;SDS011;3845;48.120;11.534;2022-08-19T12:56:31;6.33;;;4.43;;
7607;SDS011;3845;48.120;11.534;2022-08-19T12:59:00;3.67;;;3.00;;
7607;SDS011;3845;48.120;11.534;2022-08-19T13:01:27;5.20;;;4.70;;
7607;SDS011;3845;48.120;11.534;2022-08-19T13:03:55;3.93;;;3.53;;
7607;SDS011;3845;48.120;11.534;2022-08-19T13:06:20;2.40;;;2.20;;
7607;SDS011;3845;48.120;11.534;2022-08-19T13:08:46;3.27;;;2.97;;
7607;SDS011;3845;48.120;11.534;2022-08-19T13:11:12;3.63;;;3.27;;
7607;SDS011;3845;48.120;11.534;2022-08-19T13:13:40;2.50;;;2.30;;
7607;SDS011;3845;48.120;11.534;2022-08-19T13:16:08;2.23;;;2.03;;
7607;SDS011;3845;48.120;11.534;2022-08-19T13:18:36;2.20;;;2.00;;
7607;SDS011;3845;48.120;11.534;2022-08-19T13:21:03;2.80;;;2.60;;
7607;SDS011;3845;48.120;11.534;2022-08-19T13:23:30;2.57;;;2.37;;
7607;SDS011;3845;48.120;11.534;2022-08-19T13:25:59;3.80;;;3.50;;
7607;SDS011;3845;48.120;11.534;2022-08-19T13:28:27;2.30;;;2.10;;
7607;SDS011;3845;48.120;11.534;2022-08-19T13:31:14;2.40;;;2.20;;
7607;SDS011;3845;48.120;11.534;2022-08-19T13:33:58;2.40;;;2.20;;
7607;SDS011;3845;48.120;11.534;2022-08-19T13:36:24;2.50;;;2.30;;
7607;SDS011;3845;48.120;11.534;2022-08-19T13:38:49;2.50;;;2.30;;
7607;SDS011;3845;48.120;11.534;2022-08-19T13:41:14;3.77;;;3.47;;
7607;SDS011;3845;48.120;11.534;2022-08-19T13:43:39;3.43;;;2.40;;
7607;SDS011;3845;48.120;11.534;2022-08-19T13:46:08;3.00;;;2.80;;
7607;SDS011;3845;48.120;11.534;2022-08-19T13:48:34;4.77;;;4.37;;
7607;SDS011;3845;48.120;11.534;2022-08-19T13:50:59;4.30;;;2.90;;
7607;SDS011;3845;48.120;11.534;2022-08-19T13:53:25;2.87;;;2.60;;
7607;SDS011;3845;48.120;11.534;2022-08-19T13:55:50;3.17;;;2.87;;
7607;SDS011;3845;48.120;11.534;2022-08-19T13:58:16;6.03;;;5.43;;
7607;SDS011;3845;48.120;11.534;2022-08-19T14:00:43;3.60;;;3.30;;
7607;SDS011;3845;48.120;11.534;2022-08-19T14:03:09;2.87;;;2.67;;
7607;SDS011;3845;48.120;11.534;2022-08-19T14:05:35;3.30;;;3.00;;
7607;SDS011;3845;48.120;11.534;2022-08-19T14:08:01;3.57;;;3.27;;
7607;SDS011;3845;48.120;11.534;2022-08-19T14:10:27;3.20;;;2.90;;
7607;SDS011;3845;48.120;11.534;2022-08-19T14:12:57;3.60;;;3.30;;
7607;SDS011;3845;48.120;11.534;2022-08-19T14:15:24;5.73;;;5.23;;
7607;SDS011;3845;48.120;11.534;2022-08-19T14:17:49;7.07;;;6.43;;
7607;SDS011;3845;48.120;11.534;2022-08-19T14:20:15;4.70;;;4.30;;
7607;SDS011;3845;48.120;11.534;2022-08-19T14:22:41;4.13;;;3.73;;
7607;SDS011;3845;48.120;11.534;2022-08-19T14:25:08;5.57;;;5.07;;
7607;SDS011;3845;48.120;11.534;2022-08-19T14:27:35;5.53;;;5.03;;
7607;SDS011;3845;48.120;11.534;2022-08-19T14:30:02;5.77;;;5.27;;
7607;SDS011;3845;48.120;11.534;2022-08-19T14:32:28;7.20;;;6.50;;
7607;SDS011;3845;48.120;11.534;2022-08-19T14:34:54;4.40;;;4.10;;
7607;SDS011;3845;48.120;11.534;2022-08-19T14:37:20;4.83;;;4.43;;
7607;SDS011;3845;48.120;11.534;2022-08-19T14:39:47;4.20;;;3.83;;
7607;SDS011;3845;48.120;11.534;2022-08-19T14:42:12;3.40;;;3.10;;
7607;SDS011;3845;48.120;11.534;2022-08-19T14:44:39;3.37;;;3.07;;
7607;SDS011;3845;48.120;11.534;2022-08-19T14:47:04;2.80;;;2.60;;
7607;SDS011;3845;48.120;11.534;2022-08-19T14:49:32;2.40;;;2.20;;
7607;SDS011;3845;48.120;11.534;2022-08-19T14:51:57;2.50;;;2.30;;
7607;SDS011;3845;48.120;11.534;2022-08-19T14:54:22;3.00;;;2.80;;
7607;SDS011;3845;48.120;11.534;2022-08-19T14:56:48;2.60;;;2.40;;
7607;SDS011;3845;48.120;11.534;2022-08-19T14:59:13;2.77;;;2.57;;
7607;SDS011;3845;48.120;11.534;2022-08-19T15:01:39;2.47;;;2.27;;
7607;SDS011;3845;48.120;11.534;2022-08-19T15:04:04;2.30;;;2.10;;
7607;SDS011;3845;48.120;11.534;2022-08-19T15:06:30;4.57;;;4.17;;
7607;SDS011;3845;48.120;11.534;2022-08-19T15:08:56;8.77;;;7.67;;